createdAt,value
2022-10-22T00:00:32.606Z,17.87
2022-10-22T00:02:59.518Z,18.02
2022-10-22T00:05:26.631Z,17.95
2022-10-22T00:07:53.599Z,17.80
2022-10-22T00:10:20.657Z,17.68
2022-10-22T00:12:47.573Z,17.60
2022-10-22T00:15:14.655Z,17.66
2022-10-22T00:17:41.878Z,17.58
2022-10-22T00:20:09.555Z,17.46
2022-10-22T00:22:36.477Z,17.40
2022-10-22T00:25:03.687Z,17.58
2022-10-22T00:27:31.052Z,17.50
2022-10-22T00:29:58.206Z,17.47
2022-10-22T00:32:25.160Z,17.53
2022-10-22T00:34:52.265Z,17.52
2022-10-22T00:37:19.285Z,17.55
2022-10-22T00:39:46.243Z,17.45
2022-10-22T00:42:23.752Z,17.45
2022-10-22T00:45:11.596Z,17.35
2022-10-22T00:47:46.887Z,17.32
2022-10-22T00:50:25.151Z,17.24
2022-10-22T00:52:52.451Z,17.38
2022-10-22T00:55:20.750Z,17.35
2022-10-22T00:57:48.130Z,17.44
2022-10-22T01:00:16.453Z,17.32
2022-10-22T01:02:43.848Z,17.38
2022-10-22T01:05:11.428Z,17.19
2022-10-22T01:07:43.276Z,17.11
2022-10-22T01:10:24.661Z,17.17
2022-10-22T01:13:03.931Z,17.10
2022-10-22T01:15:30.835Z,17.08
2022-10-22T01:18:10.392Z,17.05
2022-10-22T01:20:46.380Z,16.95
2022-10-22T01:23:50.471Z,16.85
2022-10-22T01:26:44.029Z,16.77
2022-10-22T01:29:16.079Z,16.77
2022-10-22T01:32:07.839Z,16.84
2022-10-22T01:34:36.750Z,16.82
2022-10-22T01:37:04.048Z,16.83
2022-10-22T01:39:31.648Z,16.74
2022-10-22T01:41:58.877Z,16.79
2022-10-22T01:47:42.831Z,16.55
2022-10-22T01:50:25.061Z,16.46
2022-10-22T01:53:16.117Z,16.44
2022-10-22T01:55:54.668Z,16.57
2022-10-22T01:58:35.581Z,16.56
2022-10-22T02:01:11.406Z,16.59
2022-10-22T02:03:51.597Z,16.73
2022-10-22T02:06:22.637Z,16.64
2022-10-22T02:08:51.254Z,16.64
2022-10-22T02:11:18.327Z,16.58
2022-10-22T02:13:49.201Z,16.41
2022-10-22T02:16:21.652Z,16.42
2022-10-22T02:18:54.040Z,16.44
2022-10-22T02:21:21.031Z,16.54
2022-10-22T02:23:48.449Z,16.55
2022-10-22T02:26:35.886Z,16.66
2022-10-22T02:29:06.988Z,16.84
2022-10-22T02:31:39.060Z,16.78
2022-10-22T02:34:11.303Z,16.62
2022-10-22T02:36:40.512Z,16.55
2022-10-22T02:39:10.029Z,16.44
2022-10-22T02:41:38.153Z,16.37
2022-10-22T02:44:10.244Z,16.51
2022-10-22T02:46:39.096Z,16.60
2022-10-22T02:49:06.063Z,17.00
2022-10-22T02:51:33.090Z,16.94
2022-10-22T02:54:00.101Z,16.80
2022-10-22T02:56:27.033Z,16.92
2022-10-22T02:58:53.889Z,16.91
2022-10-22T03:01:21.046Z,16.89
2022-10-22T03:03:48.080Z,17.01
2022-10-22T03:06:15.166Z,17.07
2022-10-22T03:08:42.417Z,17.21
2022-10-22T03:11:09.529Z,17.30
2022-10-22T03:13:36.791Z,17.24
2022-10-22T03:16:04.006Z,17.31
2022-10-22T03:18:31.086Z,17.31
2022-10-22T03:21:15.747Z,17.34
2022-10-22T03:23:43.845Z,17.25
2022-10-22T03:26:13.328Z,17.21
2022-10-22T03:28:41.436Z,17.19
2022-10-22T03:31:09.526Z,17.30
2022-10-22T03:33:37.892Z,17.29
2022-10-22T03:36:07.031Z,17.35
2022-10-22T03:38:36.963Z,17.25
2022-10-22T03:41:04.377Z,17.20
2022-10-22T03:43:31.349Z,17.33
2022-10-22T03:45:58.278Z,17.39
2022-10-22T03:48:25.223Z,17.39
2022-10-22T03:50:52.331Z,17.45
2022-10-22T03:53:19.266Z,17.44
2022-10-22T03:55:46.893Z,17.30
2022-10-22T03:58:13.888Z,17.20
2022-10-22T04:00:40.936Z,17.12
2022-10-22T04:03:07.881Z,17.08
2022-10-22T04:05:34.862Z,16.98
2022-10-22T04:08:01.776Z,16.89
2022-10-22T04:10:28.807Z,16.95
2022-10-22T04:12:55.997Z,16.90
2022-10-22T04:15:22.943Z,16.89
2022-10-22T04:17:49.897Z,16.93
2022-10-22T04:20:16.997Z,17.00
2022-10-22T04:22:43.961Z,17.13
2022-10-22T04:25:10.935Z,17.21
2022-10-22T04:27:38.154Z,17.28
2022-10-22T04:30:06.861Z,17.47
2022-10-22T04:32:33.793Z,17.50
2022-10-22T04:35:00.815Z,17.46
2022-10-22T04:37:27.715Z,17.57
2022-10-22T04:39:57.301Z,17.48
2022-10-22T04:42:25.310Z,17.47
2022-10-22T04:44:52.258Z,17.56
2022-10-22T04:47:19.231Z,17.62
2022-10-22T04:49:46.169Z,17.63
2022-10-22T04:52:13.073Z,17.53
2022-10-22T04:54:40.089Z,17.47
2022-10-22T04:57:07.077Z,17.40
2022-10-22T04:59:34.038Z,17.26
2022-10-22T05:02:00.957Z,17.17
2022-10-22T05:04:28.013Z,17.17
2022-10-22T05:06:54.996Z,17.18
2022-10-22T05:09:22.080Z,17.07
2022-10-22T05:11:52.030Z,17.04
2022-10-22T05:14:22.540Z,17.01
2022-10-22T05:16:50.146Z,17.05
2022-10-22T05:19:29.628Z,16.97
2022-10-22T05:21:59.352Z,16.96
2022-10-22T05:24:27.507Z,17.17
2022-10-22T05:26:56.169Z,17.29
2022-10-22T05:29:23.869Z,17.29
2022-10-22T05:31:50.980Z,17.34
2022-10-22T05:34:18.229Z,17.18
2022-10-22T05:36:45.846Z,17.22
2022-10-22T05:39:12.959Z,17.05
2022-10-22T05:41:40.065Z,17.04
2022-10-22T05:44:07.059Z,16.88
2022-10-22T05:46:35.454Z,16.64
2022-10-22T05:49:05.789Z,16.47
2022-10-22T05:51:35.692Z,16.34
2022-10-22T05:54:03.750Z,16.48
2022-10-22T05:56:37.058Z,16.35
2022-10-22T05:59:04.878Z,16.20
2022-10-22T06:01:35.456Z,16.15
2022-10-22T06:04:05.687Z,15.94
2022-10-22T06:06:35.470Z,15.86
2022-10-22T06:09:13.682Z,15.82
2022-10-22T06:11:40.859Z,15.72
2022-10-22T06:14:07.894Z,15.67
2022-10-22T06:16:34.979Z,15.71
2022-10-22T06:19:03.226Z,15.81
2022-10-22T06:21:31.840Z,15.91
2022-10-22T06:24:02.761Z,15.93
2022-10-22T06:26:30.710Z,15.98
2022-10-22T06:28:58.694Z,15.97
2022-10-22T06:31:26.856Z,16.05
2022-10-22T06:33:54.281Z,16.07
2022-10-22T06:36:23.313Z,16.17
2022-10-22T06:38:54.879Z,16.09
2022-10-22T06:41:25.775Z,16.20
2022-10-22T06:43:57.652Z,16.33
2022-10-22T06:46:26.361Z,16.42
2022-10-22T06:48:59.411Z,16.46
2022-10-22T06:51:27.131Z,16.56
2022-10-22T06:53:55.805Z,16.61
2022-10-22T06:56:25.133Z,16.54
2022-10-22T06:58:54.185Z,16.64
2022-10-22T07:01:27.273Z,16.67
2022-10-22T07:03:54.640Z,16.49
2022-10-22T07:06:22.942Z,16.57
2022-10-22T07:08:50.111Z,16.64
2022-10-22T07:11:25.509Z,16.60
2022-10-22T07:13:55.600Z,16.72
2022-10-22T07:16:22.741Z,16.94
2022-10-22T07:18:50.214Z,17.01
2022-10-22T07:21:20.453Z,17.21
2022-10-22T07:23:47.798Z,17.33
2022-10-22T07:26:16.815Z,17.56
2022-10-22T07:28:44.075Z,17.63
2022-10-22T07:31:12.783Z,17.70
2022-10-22T07:33:40.205Z,17.92
2022-10-22T07:36:09.428Z,18.09
2022-10-22T07:38:37.339Z,18.27
2022-10-22T07:41:04.745Z,18.45
2022-10-22T07:43:31.758Z,18.52
2022-10-22T07:45:59.923Z,18.57
2022-10-22T07:48:26.936Z,18.74
2022-10-22T07:50:53.990Z,18.73
2022-10-22T07:53:24.285Z,18.89
2022-10-22T07:55:52.151Z,18.85
2022-10-22T07:58:20.792Z,18.95
2022-10-22T08:00:49.771Z,18.98
2022-10-22T08:03:17.809Z,19.06
2022-10-22T08:05:45.126Z,19.26
2022-10-22T08:08:14.592Z,19.50
2022-10-22T08:10:42.468Z,19.76
2022-10-22T08:13:09.655Z,19.77
2022-10-22T08:15:36.860Z,19.79
2022-10-22T08:18:04.457Z,19.87
2022-10-22T08:20:31.787Z,19.96
2022-10-22T08:22:59.558Z,20.06
2022-10-22T08:25:27.290Z,20.35
2022-10-22T08:27:54.245Z,20.47
2022-10-22T08:30:21.225Z,20.65
2022-10-22T08:32:50.424Z,20.68
2022-10-22T08:35:20.178Z,19.87
2022-10-22T08:37:47.054Z,20.06
2022-10-22T08:40:26.043Z,19.96
2022-10-22T08:43:18.900Z,20.20
2022-10-22T08:46:16.839Z,20.57
2022-10-22T08:48:50.766Z,20.82
2022-10-22T08:51:21.574Z,20.55
2022-10-22T08:54:01.346Z,20.49
2022-10-22T08:56:30.112Z,20.81
2022-10-22T08:59:14.000Z,20.88
2022-10-22T09:01:47.447Z,20.82
2022-10-22T09:04:52.358Z,20.48
2022-10-22T09:07:19.398Z,20.73
2022-10-22T09:09:51.840Z,20.88
2022-10-22T09:12:21.951Z,20.80
2022-10-22T09:14:49.406Z,20.53
2022-10-22T09:17:16.300Z,20.59
2022-10-22T09:20:01.509Z,20.51
2022-10-22T09:23:00.794Z,20.33
2022-10-22T09:25:31.046Z,20.47
2022-10-22T09:28:00.776Z,20.42
2022-10-22T09:30:31.139Z,20.42
2022-10-22T09:33:07.153Z,20.60
2022-10-22T09:35:44.015Z,20.45
2022-10-22T09:38:14.350Z,20.38
2022-10-22T09:40:48.068Z,20.55
2022-10-22T09:43:15.617Z,20.62
2022-10-22T09:45:44.557Z,20.74
2022-10-22T09:48:20.561Z,20.86
2022-10-22T09:50:49.965Z,20.93
2022-10-22T09:53:28.891Z,20.86
2022-10-22T09:56:01.174Z,20.89
2022-10-22T09:58:28.510Z,20.83
2022-10-22T10:01:00.198Z,20.77
2022-10-22T10:03:31.090Z,20.85
2022-10-22T10:06:04.703Z,20.76
2022-10-22T10:08:33.492Z,20.73
2022-10-22T10:11:06.769Z,20.79
2022-10-22T10:13:38.893Z,20.85
2022-10-22T10:16:27.535Z,20.95
2022-10-22T10:18:54.584Z,20.92
2022-10-22T10:21:36.294Z,20.96
2022-10-22T10:24:03.405Z,21.03
2022-10-22T10:26:56.604Z,21.11
2022-10-22T10:29:38.876Z,21.15
2022-10-22T10:32:48.378Z,21.11
2022-10-22T10:35:47.709Z,21.03
2022-10-22T10:38:17.580Z,21.18
2022-10-22T10:40:53.727Z,21.30
2022-10-22T10:43:25.751Z,21.18
2022-10-22T10:46:01.854Z,21.07
2022-10-22T10:48:41.000Z,21.33
2022-10-22T10:51:40.902Z,21.53
2022-10-22T10:54:27.574Z,21.51
2022-10-22T10:57:03.186Z,21.56
2022-10-22T10:59:51.732Z,21.82
2022-10-22T11:02:21.167Z,22.05
2022-10-22T11:04:57.131Z,21.76
2022-10-22T11:07:37.255Z,21.95
2022-10-22T11:10:24.491Z,21.74
2022-10-22T11:12:57.655Z,22.07
2022-10-22T11:15:27.240Z,21.83
2022-10-22T11:17:56.802Z,21.85
2022-10-22T11:20:31.617Z,21.94
2022-10-22T11:23:19.859Z,22.10
2022-10-22T11:25:49.361Z,22.24
2022-10-22T11:28:28.568Z,21.98
2022-10-22T11:31:01.716Z,21.79
2022-10-22T11:33:37.007Z,21.80
2022-10-22T11:36:06.522Z,21.93
2022-10-22T11:38:35.852Z,22.23
2022-10-22T11:41:13.513Z,22.61
2022-10-22T11:44:19.699Z,22.64
2022-10-22T11:46:54.190Z,22.41
2022-10-22T11:49:42.034Z,22.69
2022-10-22T11:52:40.556Z,22.68
2022-10-22T11:55:35.016Z,22.15
2022-10-22T11:58:22.946Z,21.96
2022-10-22T12:00:50.038Z,22.03
2022-10-22T12:03:19.887Z,22.09
2022-10-22T12:05:46.872Z,22.28
2022-10-22T12:08:33.448Z,22.23
2022-10-22T12:11:13.725Z,22.10
2022-10-22T12:13:58.908Z,21.97
2022-10-22T12:16:37.944Z,21.79
2022-10-22T12:19:34.127Z,21.67
2022-10-22T12:22:23.526Z,21.54
2022-10-22T12:24:54.145Z,21.62
2022-10-22T12:27:27.511Z,21.46
2022-10-22T12:29:59.820Z,21.53
2022-10-22T12:32:37.140Z,21.49
2022-10-22T12:35:19.327Z,21.45
2022-10-22T12:37:54.535Z,21.61
2022-10-22T12:40:25.810Z,21.64
2022-10-22T12:42:59.149Z,21.75
2022-10-22T12:45:28.580Z,22.00
2022-10-22T12:48:05.042Z,22.10
2022-10-22T12:50:37.650Z,22.05
2022-10-22T12:53:20.031Z,21.68
2022-10-22T12:55:50.196Z,21.76
2022-10-22T12:58:22.578Z,21.77
2022-10-22T13:00:57.617Z,21.70
2022-10-22T13:03:29.211Z,21.70
2022-10-22T13:05:56.418Z,21.88
2022-10-22T13:08:27.462Z,21.88
2022-10-22T13:10:55.197Z,21.88
2022-10-22T13:13:34.501Z,21.93
2022-10-22T13:16:21.946Z,21.93
2022-10-22T13:18:49.126Z,21.94
2022-10-22T13:21:38.219Z,21.59
2022-10-22T13:24:23.592Z,21.72
2022-10-22T13:26:54.445Z,21.68
2022-10-22T13:29:23.620Z,21.58
2022-10-22T13:31:52.790Z,21.67
2022-10-22T13:34:22.017Z,21.53
2022-10-22T13:36:50.510Z,21.59
2022-10-22T13:39:22.820Z,21.55
2022-10-22T13:41:51.112Z,21.55
2022-10-22T13:44:18.960Z,21.48
2022-10-22T13:46:48.086Z,21.46
2022-10-22T13:49:22.591Z,21.39
2022-10-22T13:51:51.036Z,21.34
2022-10-22T13:54:24.373Z,21.34
2022-10-22T13:56:51.373Z,21.28
2022-10-22T13:59:21.304Z,21.19
2022-10-22T14:01:51.159Z,21.25
2022-10-22T14:04:18.233Z,21.28
2022-10-22T14:06:45.254Z,21.07
2022-10-22T14:09:15.469Z,21.13
2022-10-22T14:11:43.236Z,21.13
2022-10-22T14:14:14.342Z,21.09
2022-10-22T14:16:41.824Z,21.14
2022-10-22T14:19:14.591Z,20.42
2022-10-22T14:21:41.710Z,19.08
2022-10-22T14:24:12.980Z,18.23
2022-10-22T14:26:40.995Z,17.56
2022-10-22T14:29:10.188Z,17.21
2022-10-22T14:31:43.837Z,16.98
2022-10-22T14:34:13.412Z,16.80
2022-10-22T14:36:40.561Z,16.64
2022-10-22T14:39:08.598Z,16.51
2022-10-22T14:41:36.972Z,16.46
2022-10-22T14:44:04.083Z,16.42
2022-10-22T14:46:31.128Z,16.34
2022-10-22T14:48:58.567Z,16.27
2022-10-22T14:51:25.654Z,16.27
2022-10-22T14:53:52.671Z,16.34
2022-10-22T14:56:22.653Z,16.34
2022-10-22T14:58:50.200Z,16.18
2022-10-22T15:01:17.606Z,16.09
2022-10-22T15:03:44.976Z,16.02
2022-10-22T15:06:12.137Z,15.90
2022-10-22T15:08:39.719Z,15.86
2022-10-22T15:11:10.522Z,15.78
2022-10-22T15:13:37.677Z,15.77
2022-10-22T15:16:09.716Z,15.83
2022-10-22T15:18:37.001Z,15.86
2022-10-22T15:21:13.987Z,15.78
2022-10-22T15:23:41.031Z,15.80
2022-10-22T15:26:08.857Z,15.79
2022-10-22T15:28:37.190Z,15.74
2022-10-22T15:31:05.014Z,15.73
2022-10-22T15:33:34.588Z,15.66
2022-10-22T15:36:11.644Z,15.76
2022-10-22T15:38:38.883Z,15.74
2022-10-22T15:41:07.444Z,15.69
2022-10-22T15:43:35.075Z,15.55
2022-10-22T15:46:34.716Z,15.49
2022-10-22T15:49:02.657Z,15.45
2022-10-22T15:51:29.631Z,15.46
2022-10-22T15:53:58.671Z,15.49
2022-10-22T15:56:28.051Z,15.50
2022-10-22T15:59:00.379Z,15.58
2022-10-22T16:01:27.796Z,15.55
2022-10-22T16:04:00.386Z,15.50
2022-10-22T16:06:40.473Z,15.54
2022-10-22T16:09:10.785Z,15.48
2022-10-22T16:11:38.996Z,15.49
2022-10-22T16:14:07.583Z,15.55
2022-10-22T16:16:36.652Z,15.53
2022-10-22T16:19:03.705Z,15.55
2022-10-22T16:21:30.781Z,15.55
2022-10-22T16:24:00.157Z,15.54
2022-10-22T16:26:29.381Z,15.53
2022-10-22T16:28:58.431Z,15.56
2022-10-22T16:31:25.465Z,15.50
2022-10-22T16:33:52.647Z,15.51
2022-10-22T16:36:21.201Z,15.51
2022-10-22T16:38:48.991Z,15.50
2022-10-22T16:41:20.711Z,15.44
2022-10-22T16:43:49.875Z,15.45
2022-10-22T16:46:21.440Z,15.48
2022-10-22T16:48:50.791Z,15.46
2022-10-22T16:51:21.596Z,15.52
2022-10-22T16:53:49.193Z,15.55
2022-10-22T16:56:16.819Z,15.46
2022-10-22T16:58:54.557Z,15.45
2022-10-22T17:01:24.383Z,15.47
2022-10-22T17:03:53.680Z,15.43
2022-10-22T17:06:22.414Z,15.49
2022-10-22T17:08:49.473Z,15.55
2022-10-22T17:11:19.490Z,15.53
2022-10-22T17:13:49.102Z,15.55
2022-10-22T17:16:18.884Z,15.58
2022-10-22T17:21:34.315Z,15.46
2022-10-22T17:24:01.238Z,15.47
2022-10-22T17:26:28.729Z,15.44
2022-10-22T17:28:55.749Z,15.45
2022-10-22T17:31:31.882Z,15.38
2022-10-22T17:34:00.174Z,15.37
2022-10-22T17:36:33.215Z,15.34
2022-10-22T17:39:06.382Z,15.40
2022-10-22T17:41:36.295Z,15.42
2022-10-22T17:44:04.839Z,15.44
2022-10-22T17:46:32.653Z,15.58
2022-10-22T17:49:02.466Z,15.57
2022-10-22T17:51:30.542Z,15.60
2022-10-22T17:53:57.973Z,15.54
2022-10-22T17:56:27.521Z,15.46
2022-10-22T17:58:55.562Z,15.46
2022-10-22T18:01:25.494Z,15.56
2022-10-22T18:03:54.283Z,15.49
2022-10-22T18:06:22.179Z,15.53
2022-10-22T18:08:49.314Z,15.50
2022-10-22T18:11:19.058Z,15.50
2022-10-22T18:13:50.296Z,15.48
2022-10-22T18:16:17.991Z,15.49
2022-10-22T18:18:50.158Z,15.46
2022-10-22T18:21:18.006Z,15.45
2022-10-22T18:23:45.786Z,15.46
2022-10-22T18:26:13.590Z,15.37
2022-10-22T18:28:40.867Z,15.36
2022-10-22T18:31:10.185Z,15.34
2022-10-22T18:33:37.518Z,15.34
2022-10-22T18:36:19.161Z,15.34
2022-10-22T18:39:00.637Z,15.35
2022-10-22T18:41:29.836Z,15.29
2022-10-22T18:44:02.592Z,15.29
2022-10-22T18:46:31.111Z,15.25
2022-10-22T18:48:59.098Z,15.20
2022-10-22T18:51:30.316Z,15.20
2022-10-22T18:54:05.441Z,15.21
2022-10-22T18:56:40.843Z,15.22
2022-10-22T18:59:15.476Z,15.23
2022-10-22T19:01:42.442Z,15.27
2022-10-22T19:04:09.414Z,15.29
2022-10-22T19:06:37.107Z,15.34
2022-10-22T19:09:05.371Z,15.26
2022-10-22T19:11:32.851Z,15.23
2022-10-22T19:13:59.832Z,15.25
2022-10-22T19:16:28.702Z,15.26
2022-10-22T19:19:02.187Z,15.23
2022-10-22T19:21:29.711Z,15.26
2022-10-22T19:23:58.353Z,15.12
2022-10-22T19:26:26.707Z,15.18
2022-10-22T19:28:54.933Z,15.18
2022-10-22T19:31:25.601Z,15.22
2022-10-22T19:33:55.465Z,15.12
2022-10-22T19:36:28.073Z,15.13
2022-10-22T19:38:55.603Z,14.99
2022-10-22T19:41:24.729Z,14.94
2022-10-22T19:43:53.487Z,14.99
2022-10-22T19:46:22.076Z,15.10
2022-10-22T19:48:49.937Z,15.02
2022-10-22T19:51:22.181Z,14.98
2022-10-22T19:53:49.792Z,14.95
2022-10-22T19:56:19.819Z,14.98
2022-10-22T19:58:47.327Z,14.99
2022-10-22T20:01:17.662Z,14.99
2022-10-22T20:03:45.455Z,14.95
2022-10-22T20:06:15.272Z,14.95
2022-10-22T20:08:42.236Z,15.01
2022-10-22T20:11:16.685Z,15.01
2022-10-22T20:13:46.629Z,14.88
2022-10-22T20:16:19.541Z,14.96
2022-10-22T20:18:46.599Z,15.00
2022-10-22T20:21:15.289Z,14.88
2022-10-22T20:23:43.318Z,14.81
2022-10-22T20:26:10.579Z,14.81
2022-10-22T20:28:38.603Z,14.90
2022-10-22T20:31:14.897Z,14.81
2022-10-22T20:33:42.045Z,14.77
2022-10-22T20:36:19.766Z,14.78
2022-10-22T20:38:48.431Z,14.80
2022-10-22T20:41:18.809Z,14.74
2022-10-22T20:43:46.757Z,14.84
2022-10-22T20:46:18.335Z,14.86
2022-10-22T20:48:46.102Z,14.75
2022-10-22T20:51:13.208Z,14.71
2022-10-22T20:53:40.299Z,14.66
2022-10-22T20:56:08.609Z,14.70
2022-10-22T20:58:35.969Z,14.65
2022-10-22T21:01:10.074Z,14.72
2022-10-22T21:03:37.972Z,14.66
2022-10-22T21:06:05.984Z,14.73
2022-10-22T21:08:35.514Z,14.73
2022-10-22T21:11:06.147Z,14.75
2022-10-22T21:13:33.579Z,14.72
2022-10-22T21:16:10.726Z,14.73
2022-10-22T21:18:38.113Z,14.71
2022-10-22T21:21:06.187Z,14.68
2022-10-22T21:23:34.703Z,14.55
2022-10-22T21:26:01.831Z,14.45
2022-10-22T21:30:57.088Z,14.40
2022-10-22T21:33:24.168Z,14.40
2022-10-22T21:35:55.632Z,14.31
2022-10-22T21:38:23.995Z,14.20
2022-10-22T21:40:51.348Z,14.15
2022-10-22T21:43:18.523Z,14.13
2022-10-22T21:45:45.514Z,14.12
2022-10-22T21:48:14.435Z,14.26
2022-10-22T21:50:42.856Z,14.23
2022-10-22T21:53:12.086Z,14.03
2022-10-22T21:55:42.358Z,13.92
2022-10-22T21:58:09.445Z,13.90
2022-10-22T22:00:36.959Z,13.83
2022-10-22T22:03:06.458Z,13.91
2022-10-22T22:05:33.440Z,13.84
2022-10-22T22:08:00.420Z,14.04
2022-10-22T22:10:27.427Z,14.09
2022-10-22T22:12:54.342Z,14.03
2022-10-22T22:15:21.361Z,14.09
2022-10-22T22:17:48.351Z,14.07
2022-10-22T22:20:15.505Z,13.95
2022-10-22T22:22:42.856Z,13.81
2022-10-22T22:25:10.161Z,13.81
2022-10-22T22:27:37.207Z,13.80
2022-10-22T22:30:05.060Z,13.89
2022-10-22T22:32:31.975Z,13.81
2022-10-22T22:34:58.911Z,13.80
2022-10-22T22:37:27.512Z,13.74
2022-10-22T22:39:54.750Z,13.70
2022-10-22T22:42:21.765Z,13.58
2022-10-22T22:44:48.818Z,13.56
2022-10-22T22:47:15.877Z,13.62
2022-10-22T22:49:42.986Z,13.70
2022-10-22T22:52:10.106Z,13.52
2022-10-22T22:54:37.181Z,13.33
2022-10-22T22:57:04.191Z,13.30
2022-10-22T22:59:31.312Z,13.16
2022-10-22T23:01:58.597Z,13.22
2022-10-22T23:04:26.449Z,13.14
2022-10-22T23:06:53.476Z,13.10
2022-10-22T23:09:21.766Z,13.11
2022-10-22T23:11:49.209Z,13.11
2022-10-22T23:14:18.767Z,13.09
2022-10-22T23:16:49.229Z,13.03
2022-10-22T23:19:18.967Z,12.93
2022-10-22T23:21:55.046Z,12.88
2022-10-22T23:24:25.177Z,12.86
2022-10-22T23:26:52.923Z,12.88
2022-10-22T23:29:26.361Z,13.10
2022-10-22T23:31:54.263Z,13.07
2022-10-22T23:34:23.706Z,13.18
2022-10-22T23:36:52.086Z,13.02
2022-10-22T23:39:21.802Z,12.92
2022-10-22T23:41:58.868Z,12.84
2022-10-22T23:44:26.060Z,12.80
2022-10-22T23:46:53.029Z,12.75
2022-10-22T23:49:20.031Z,12.68
2022-10-22T23:51:47.362Z,12.75
2022-10-22T23:54:18.499Z,12.70
2022-10-22T23:56:45.609Z,12.69
